Skip to main content

NOAA/GLERL Met Station at Chicago, IL

Previous 5 days (top of hour only)
See also Previous 3 Hours (2 minute increments)
Jump down to Data
Switch to [English][Metric]
Zoom: Click and drag, Pan: shift-click and drag, Unzoom: double-click, Unzoom All




Note: Speed = mean wind during 2-minute period at top of hour,
Gust = max wind during 2-minute period at top of hour,
Peak = max wind during entire hour.
• See also 5-day windrose plot


NOAA/GLERL Met Station at Chicago, IL

Previous 5 days (top of hour only)
See also Previous 3 Hours (2 minute increments)
Jump up to Graphs
Switch to [English][Metric]
                  Wind  Wind  Wind   Air   Dew   Rel
                   Spd   Gst   Dir  Temp    Pt   Hum
YYYY-MM-DD   CDT   kts   kts   deg     F     F     %
2019-05-27 00:00 -99.0 -99.0   -99   0.0   0.0   0.0
2019-05-26 09:00   9.7  10.1   342   0.0   0.0   0.0
2019-05-26 08:00   6.8   7.6   353   0.0   0.0   0.0
2019-05-26 07:00   9.5   9.9   342   0.0   0.0   0.0
2019-05-26 06:00   9.9  11.3   348   0.0   0.0   0.0
2019-05-26 05:00  14.4  15.6   277   0.0   0.0   0.0
2019-05-26 04:00  11.3  12.4   259   0.0   0.0   0.0
2019-05-26 03:00  10.7  10.9   276   0.0   0.0   0.0
2019-05-26 02:00   5.6   6.2   266   0.0   0.0   0.0
2019-05-26 01:00  10.7  12.1   252   0.0   0.0   0.0
2019-05-26 00:00  12.1  13.6   257   0.0   0.0   0.0
2019-05-25 23:00  11.3  12.8   251   0.0   0.0   0.0
2019-05-25 22:00  11.9  13.4   257   0.0   0.0   0.0
2019-05-25 21:00  12.2  13.6   257   0.0   0.0   0.0
2019-05-25 20:00  16.1  18.7   260   0.0   0.0   0.0
2019-05-25 19:00  11.9  13.0   253   0.0   0.0   0.0
2019-05-25 18:00   7.4   9.7   250   0.0   0.0   0.0
2019-05-25 17:00  18.7  22.4   256   0.0   0.0   0.0
2019-05-25 16:00  17.5  20.2   249   0.0   0.0   0.0
2019-05-25 15:00  16.7  20.0   248   0.0   0.0   0.0
2019-05-25 14:00  12.6  14.8   250   0.0   0.0   0.0
2019-05-25 13:00  20.2  21.6   264   0.0   0.0   0.0
2019-05-25 12:00  23.9  28.0   254   0.0   0.0   0.0
2019-05-25 11:00  24.9  28.0   254   0.0   0.0   0.0
2019-05-25 10:00  21.4  24.3   259   0.0   0.0   0.0
2019-05-25 09:00  12.8  14.4   236   0.0   0.0   0.0
2019-05-25 08:00  11.3  12.2   249   0.0   0.0   0.0
2019-05-25 07:00  12.1  13.8   232   0.0   0.0   0.0
2019-05-25 06:00  14.8  19.4   248   0.0   0.0   0.0
2019-05-25 05:00  14.0  15.4   212   0.0   0.0   0.0
2019-05-25 04:00  20.0  23.5   228   0.0   0.0   0.0
2019-05-25 03:00  22.2  25.7   210   0.0   0.0   0.0
2019-05-25 02:00  21.0  22.6   204   0.0   0.0   0.0
2019-05-25 01:00  21.2  26.2   209   0.0   0.0   0.0
2019-05-25 00:00  13.6  16.7   195   0.0   0.0   0.0
2019-05-24 23:00  10.1  10.3   176   0.0   0.0   0.0
2019-05-24 22:00  12.1  14.2   185   0.0   0.0   0.0
2019-05-24 21:00   5.1   5.4   150   0.0   0.0   0.0
2019-05-24 20:00   3.3   4.9   129   0.0   0.0   0.0
2019-05-24 19:00   4.1   4.3    70   0.0   0.0   0.0
2019-05-24 18:00   6.4   6.4     8   0.0   0.0   0.0
2019-05-24 17:00   3.5   3.9   164   0.0   0.0   0.0
2019-05-24 16:00   9.9  11.3   104   0.0   0.0   0.0
2019-05-24 15:00  17.9  19.1   119   0.0   0.0   0.0
2019-05-24 14:00  19.4  20.2   102   0.0   0.0   0.0
2019-05-24 13:00  16.5  19.1   337   0.0   0.0   0.0
2019-05-24 12:00   7.0   7.2   175   0.0   0.0   0.0
2019-05-24 11:00   6.0   6.4   187   0.0   0.0   0.0
2019-05-24 10:00   7.8   9.9   154   0.0   0.0   0.0
2019-05-24 09:00  20.0  22.2   125   0.0   0.0   0.0
2019-05-24 08:00   8.7   9.9    29   0.0   0.0   0.0
2019-05-24 07:00   8.2   9.1    24   0.0   0.0   0.0
2019-05-24 06:00  16.1  17.9   336   0.0   0.0   0.0
2019-05-24 05:00   9.1   9.5    73   0.0   0.0   0.0
2019-05-24 04:00   9.7  10.1    75   0.0   0.0   0.0
2019-05-24 03:00   8.2   8.7    83   0.0   0.0   0.0
2019-05-24 02:00   6.0   6.4    65   0.0   0.0   0.0
2019-05-24 01:00   4.1   4.9    30   0.0   0.0   0.0
2019-05-24 00:00   7.8   8.2    60   0.0   0.0   0.0
2019-05-23 23:00   9.3   9.9    69   0.0   0.0   0.0
2019-05-23 22:00   5.4   6.0   293   0.0   0.0   0.0
2019-05-23 21:00   7.0   7.4   288   0.0   0.0   0.0
2019-05-23 20:00   9.7  10.3   287   0.0   0.0   0.0
2019-05-23 19:00  11.5  13.2   282   0.0   0.0   0.0
2019-05-23 18:00  17.3  19.4   265   0.0   0.0   0.0
2019-05-23 17:00  19.8  21.6   286   0.0   0.0   0.0
2019-05-23 16:00  23.3  26.0   285   0.0   0.0   0.0
2019-05-23 15:00  20.6  24.5   285   0.0   0.0   0.0
2019-05-23 14:00  22.4  25.3   284   0.0   0.0   0.0
2019-05-23 13:00  18.5  20.4   272   0.0   0.0   0.0
2019-05-23 12:00  16.3  19.8   252   0.0   0.0   0.0
2019-05-23 11:00  22.9  26.0   271   0.0   0.0   0.0
2019-05-23 10:00  23.3  25.7   271   0.0   0.0   0.0
2019-05-23 09:00  22.4  25.1   277   0.0   0.0   0.0
2019-05-23 08:00  15.4  17.7   270   0.0   0.0   0.0
2019-05-23 07:00  15.0  16.1   270   0.0   0.0   0.0
2019-05-23 06:00  17.3  18.5   273   0.0   0.0   0.0
2019-05-23 05:00  17.7  19.4   269   0.0   0.0   0.0
2019-05-23 04:00  22.4  25.9   219   0.0   0.0   0.0
2019-05-23 03:00  21.4  26.6   228   0.0   0.0   0.0
2019-05-23 02:00  22.6  27.4   221   0.0   0.0   0.0
2019-05-23 01:00  19.6  20.8   180   0.0   0.0   0.0
2019-05-23 00:00  22.7  24.1   206   0.0   0.0   0.0
2019-05-22 23:00  22.9  25.1   193   0.0   0.0   0.0
2019-05-22 22:00  21.4  22.0   191   0.0   0.0   0.0
2019-05-22 21:00  22.2  23.1   185   0.0   0.0   0.0
2019-05-22 20:00  23.1  24.1   185   0.0   0.0   0.0
2019-05-22 19:00  26.6  28.8   193   0.0   0.0   0.0
2019-05-22 18:00  24.9  28.4   198   0.0   0.0  40.9
2019-05-22 17:00  26.4  27.4   196   0.0   0.0  39.4
2019-05-22 16:00  23.1  25.7   194   0.0   0.0  44.5
2019-05-22 15:00  24.7  26.6   183   0.0   0.0  48.5
2019-05-22 14:00  14.6  16.1   167   0.0   0.0  65.1
2019-05-22 13:00  16.3  17.9   175   0.0   0.0  74.9
2019-05-22 12:00  22.9  23.9   177   0.0   0.0  77.0
2019-05-22 11:00  20.8  21.4   184   0.0   0.0  79.4
2019-05-22 10:00  14.4  15.0   141   0.0   0.0  97.2
2019-05-22 09:00  13.8  14.4   133   0.0   0.0  99.7
2019-05-22 08:00   8.6   9.5   130   0.0   0.0  99.7
2019-05-22 07:00   9.7  10.3   149   0.0   0.0  99.6
2019-05-22 06:00  14.8  15.6   127   0.0   0.0  98.2
2019-05-22 05:00  13.4  17.3   164   0.0   0.0  99.8
2019-05-22 04:00  20.8  22.6   104   0.0   0.0  99.8
2019-05-22 03:00   8.4   9.5   121   0.0   0.0  99.8
2019-05-22 02:00   3.7   4.1   192   0.0   0.0  99.4
2019-05-22 01:00   9.9  11.7   176   0.0   0.0  78.8
2019-05-22 00:00  20.6  22.4   122   0.0   0.0  75.3
2019-05-21 23:00  16.1  18.9   110   0.0   0.0  74.7
2019-05-21 22:00  17.3  18.5   110   0.0   0.0  80.7
2019-05-21 21:00  15.9  17.7   104   0.0   0.0  83.7
2019-05-21 20:00  14.6  16.1    96   0.0   0.0  86.0
2019-05-21 19:00  17.3  19.6    99   0.0   0.0  84.1